Time;durP1;ratioP1;P1;durP2;ratioP2;P2;SDS_P1;SDS_P2;PMS_P1;PMS_P2;Temp;Humidity;BMP_temperature;BMP_pressure;BME280_temperature;BME280_humidity;BME280_pressure;Samples;Min_cycle;Max_cycle;Signal;HPM_P1;HPM_P2
2022/05/27 00:02:25;;;;;;;2.40;1.45;;;;;;;18.94;52.24;100448.59;4998751;28;20042;-85
2022/05/27 00:04:52;;;;;;;4.03;1.90;;;;;;;18.93;52.31;100452.28;4992492;28;20149;-85
2022/05/27 00:07:20;;;;;;;3.17;1.73;;;;;;;18.90;52.48;100452.63;5004416;28;20375;-86
2022/05/27 00:09:47;;;;;;;3.60;2.25;;;;;;;18.86;52.40;100439.53;5005377;28;20050;-83
2022/05/27 00:12:14;;;;;;;3.55;1.50;;;;;;;18.83;52.62;100439.06;4995204;28;20041;-84
2022/05/27 00:14:41;;;;;;;3.55;1.90;;;;;;;18.81;52.48;100438.41;4993515;28;20052;-83
2022/05/27 00:17:07;;;;;;;3.83;1.75;;;;;;;18.81;52.55;100443.78;5021359;28;20366;-83
2022/05/27 00:19:35;;;;;;;3.08;1.80;;;;;;;18.76;52.65;100436.22;4978517;28;20050;-84
2022/05/27 00:22:01;;;;;;;4.18;1.88;;;;;;;18.73;52.84;100441.09;4997663;28;20049;-85
2022/05/27 00:24:28;;;;;;;4.40;2.17;;;;;;;18.71;52.98;100441.25;5016922;28;20052;-85
2022/05/27 00:26:55;;;;;;;2.83;1.70;;;;;;;18.67;53.12;100434.53;4977815;28;20131;-81
2022/05/27 00:29:21;;;;;;;3.35;1.58;;;;;;;18.66;53.04;100441.75;4994745;28;20049;-80
2022/05/27 00:32:02;;;;;;;3.63;1.63;;;;;;;18.64;53.49;100437.56;4995220;28;20615;-80
2022/05/27 00:34:29;;;;;;;4.90;1.90;;;;;;;18.62;53.25;100437.75;4972115;28;20526;-80
2022/05/27 00:36:55;;;;;;;3.55;1.70;;;;;;;18.62;53.60;100439.59;4980834;28;20056;-81
2022/05/27 00:39:22;;;;;;;2.95;1.70;;;;;;;18.60;53.83;100436.25;4986492;28;20061;-83
2022/05/27 00:41:49;;;;;;;2.38;1.52;;;;;;;18.59;53.55;100437.25;5012170;28;20609;-83
2022/05/27 00:44:16;;;;;;;2.03;1.48;;;;;;;18.55;53.55;100434.09;4969072;28;20054;-83
2022/05/27 00:46:43;;;;;;;4.18;1.85;;;;;;;18.52;53.64;100428.19;4985125;28;20051;-83
2022/05/27 00:49:17;;;;;;;2.60;1.67;;;;;;;18.49;54.18;100418.63;5005293;28;20133;-83
2022/05/27 00:51:58;;;;;;;5.03;1.83;;;;;;;18.50;54.04;100416.78;5007763;28;20052;-83
2022/05/27 00:54:25;;;;;;;2.97;1.40;;;;;;;18.50;53.61;100420.31;4975362;28;20045;-83
2022/05/27 00:57:03;;;;;;;3.08;1.70;;;;;;;18.46;53.81;100421.66;5003154;28;20137;-83
2022/05/27 00:59:42;;;;;;;2.75;1.65;;;;;;;18.45;54.07;100417.31;4986197;28;20084;-83
2022/05/27 01:02:09;;;;;;;4.47;2.03;;;;;;;18.44;53.62;100411.09;4940115;28;20045;-86
2022/05/27 01:04:36;;;;;;;2.85;1.63;;;;;;;18.42;53.61;100417.66;4997632;28;20046;-85
2022/05/27 01:07:05;;;;;;;1.98;1.77;;;;;;;18.41;53.80;100407.91;4983626;28;20033;-85
2022/05/27 01:09:34;;;;;;;3.92;2.25;;;;;;;18.37;53.76;100412.78;4998403;28;20088;-80
2022/05/27 01:12:46;;;;;;;4.53;1.80;;;;;;;18.35;54.19;100408.59;4987586;28;21415;-81
2022/05/27 01:15:21;;;;;;;5.25;1.80;;;;;;;18.34;54.29;100399.69;4952900;28;20046;-79
2022/05/27 01:18:07;;;;;;;4.90;2.20;;;;;;;18.35;53.63;100401.38;4992528;28;20449;-80
2022/05/27 01:20:47;;;;;;;2.60;1.88;;;;;;;18.28;54.36;100405.75;4968417;28;20045;-80
2022/05/27 01:23:31;;;;;;;2.55;1.63;;;;;;;18.28;54.17;100407.59;4982855;28;20053;-80
2022/05/27 01:26:19;;;;;;;3.17;1.67;;;;;;;18.22;54.73;100409.97;4975011;28;20133;-80
2022/05/27 01:29:03;;;;;;;4.57;2.38;;;;;;;18.18;54.51;100405.94;4969281;28;20441;-80
2022/05/27 01:31:49;;;;;;;4.40;2.20;;;;;;;18.16;54.56;100409.81;4991314;28;20053;-84
2022/05/27 01:34:40;;;;;;;2.58;1.75;;;;;;;18.15;55.00;100397.38;4941705;28;20099;-84
2022/05/27 01:37:30;;;;;;;4.95;2.20;;;;;;;18.13;54.55;100394.84;4956264;28;20533;-83
2022/05/27 01:40:17;;;;;;;3.03;2.03;;;;;;;18.10;54.68;100397.88;4986118;28;20048;-84
2022/05/27 01:42:46;;;;;;;4.43;1.88;;;;;;;18.12;54.32;100395.03;4984858;28;20562;-84
2022/05/27 01:45:15;;;;;;;3.42;2.10;;;;;;;18.10;54.45;100389.81;5014796;28;20489;-84
2022/05/27 01:47:51;;;;;;;3.25;1.75;;;;;;;18.10;54.67;100397.06;4978705;28;20448;-84
2022/05/27 01:50:34;;;;;;;3.05;1.80;;;;;;;18.07;55.08;100394.72;4997171;28;20049;-83
2022/05/27 01:53:06;;;;;;;;;;;;;;;18.03;54.82;100393.38;4984909;28;20055;-84
2022/05/27 01:55:37;;;;;;;3.65;2.03;;;;;;;18.06;54.53;100393.84;4984568;28;19975;-80
2022/05/27 01:58:11;;;;;;;5.43;2.25;;;;;;;18.03;54.91;100391.50;5001242;28;20048;-80
2022/05/27 02:00:40;;;;;;;3.33;2.00;;;;;;;18.03;54.67;100396.88;4961814;28;20044;-80
2022/05/27 02:03:14;;;;;;;3.78;2.22;;;;;;;17.97;54.84;100398.41;4995937;28;20046;-80
2022/05/27 02:05:47;;;;;;;4.15;1.77;;;;;;;17.96;54.86;100395.88;4997343;28;20137;-85
2022/05/27 02:08:52;;;;;;;2.53;1.73;;;;;;;17.90;55.37;100392.03;4980231;28;20482;-84
2022/05/27 02:11:20;;;;;;;1.90;1.70;;;;;;;17.90;55.13;100397.41;4870335;28;20126;-85
2022/05/27 02:13:48;;;;;;;3.35;1.90;;;;;;;17.88;54.99;100386.00;4941701;28;20054;-85
2022/05/27 02:16:30;;;;;;;5.47;1.95;;;;;;;17.84;55.61;100383.84;4933005;28;20047;-85
2022/05/27 02:19:22;;;;;;;7.38;2.67;;;;;;;17.81;55.82;100382.31;4914655;28;20659;-85
2022/05/27 02:21:57;;;;;;;3.88;2.05;;;;;;;17.83;55.41;100379.44;4912629;28;20686;-85
2022/05/27 02:24:23;;;;;;;4.20;1.80;;;;;;;17.82;55.20;100381.31;4912117;28;20169;-85
2022/05/27 02:27:02;;;;;;;5.30;2.22;;;;;;;17.77;55.75;100373.72;4947298;28;20050;-85
2022/05/27 02:29:30;;;;;;;3.05;1.88;;;;;;;17.78;55.18;100371.88;4936110;28;20054;-85
2022/05/27 02:32:07;;;;;;;2.92;1.80;;;;;;;17.72;55.71;100353.75;4948995;28;20134;-85
2022/05/27 02:37:34;;;;;;;3.88;2.58;;;;;;;17.69;55.27;100360.31;4922383;28;20051;-85
2022/05/27 02:40:05;;;;;;;3.97;2.28;;;;;;;17.69;55.19;100360.31;4948237;28;20042;-84
2022/05/27 02:42:44;;;;;;;3.47;2.10;;;;;;;17.66;55.72;100355.28;4910424;28;20050;-84
2022/05/27 02:45:33;;;;;;;3.78;1.90;;;;;;;17.64;55.87;100356.44;4950977;28;20141;-85
2022/05/27 02:48:22;;;;;;;2.83;1.88;;;;;;;17.66;55.03;100360.66;4934493;28;20098;-85
2022/05/27 02:51:19;;;;;;;3.60;1.95;;;;;;;17.56;56.18;100359.97;4923484;28;20049;-85
2022/05/27 02:54:03;;;;;;;2.10;1.80;;;;;;;17.58;55.91;100360.66;4910337;28;20051;-85
2022/05/27 02:56:35;;;;;;;4.88;2.10;;;;;;;17.54;55.93;100368.19;4951402;28;20076;-85
2022/05/27 02:59:03;;;;;;;3.70;2.70;;;;;;;17.58;55.85;100366.84;4968846;28;20046;-85
2022/05/27 03:01:31;;;;;;;3.97;1.95;;;;;;;17.56;55.40;100363.50;4947755;28;20085;-86
2022/05/27 03:03:57;;;;;;;4.05;2.30;;;;;;;17.55;55.67;100361.84;4943411;28;20058;-86
2022/05/27 03:06:27;;;;;;;2.83;2.25;;;;;;;17.52;56.07;100369.38;4951538;28;20725;-80
2022/05/27 03:09:00;;;;;;;3.67;1.92;;;;;;;17.54;56.15;100364.66;4945315;28;20057;-76
2022/05/27 03:11:48;;;;;;;4.47;2.40;;;;;;;17.51;56.02;100365.00;4942132;28;20142;-82
2022/05/27 03:14:37;;;;;;;2.45;1.98;;;;;;;17.44;56.44;100370.19;4987639;28;20501;-83
2022/05/27 03:17:26;;;;;;;7.78;2.30;;;;;;;17.42;56.47;100366.00;4980598;28;20667;-83
2022/05/27 03:20:07;;;;;;;6.03;2.00;;;;;;;17.40;56.16;100365.34;4972682;28;20060;-83
2022/05/27 03:22:43;;;;;;;4.47;2.33;;;;;;;17.38;56.14;100361.97;4966631;28;20049;-82
2022/05/27 03:25:22;;;;;;;3.35;2.17;;;;;;;17.33;56.70;100359.81;5002366;28;20092;-82
2022/05/27 03:27:59;;;;;;;4.95;2.13;;;;;;;17.33;56.56;100352.59;4976641;28;20058;-82
2022/05/27 03:30:32;;;;;;;5.18;2.15;;;;;;;17.35;56.47;100347.03;4995799;28;20413;-83
2022/05/27 03:33:27;;;;;;;4.82;2.15;;;;;;;17.31;57.00;100345.72;4978803;28;20077;-79
2022/05/27 03:36:19;;;;;;;5.35;2.00;;;;;;;17.27;57.19;100347.03;4980742;28;20045;-82
2022/05/27 03:38:59;;;;;;;3.67;2.40;;;;;;;17.29;57.05;100345.88;4965442;28;20046;-83
2022/05/27 03:41:31;;;;;;;4.95;2.45;;;;;;;17.30;56.91;100354.75;4970846;28;20193;-83
2022/05/27 03:43:58;;;;;;;8.02;2.10;;;;;;;17.30;56.45;100355.59;4951470;28;20450;-82
2022/05/27 03:46:32;;;;;;;6.13;2.63;;;;;;;17.28;56.85;100357.63;4983213;28;20050;-82
2022/05/27 03:48:59;;;;;;;2.53;2.00;;;;;;;17.30;56.91;100354.75;4946116;28;20053;-82
2022/05/27 03:51:31;;;;;;;2.65;2.30;;;;;;;17.26;57.21;100365.00;4962537;28;20164;-80
2022/05/27 03:54:04;;;;;;;2.60;2.27;;;;;;;17.32;57.40;100369.69;4973739;28;20046;-80
2022/05/27 03:56:39;;;;;;;3.58;2.22;;;;;;;17.42;57.79;100366.84;4959226;28;20452;-79
2022/05/27 03:59:11;;;;;;;5.78;2.35;;;;;;;17.61;57.88;100371.06;4975218;28;20057;-80
2022/05/27 04:01:41;;;;;;;4.90;2.55;;;;;;;17.80;57.09;100359.13;4956986;28;20114;-80
2022/05/27 04:04:10;;;;;;;3.35;2.40;;;;;;;17.88;56.94;100369.88;4949002;28;20046;-80
2022/05/27 04:06:37;;;;;;;5.65;2.50;;;;;;;17.88;56.62;100361.81;4966744;28;20564;-79
2022/05/27 04:09:04;;;;;;;5.45;2.42;;;;;;;17.84;56.75;100359.66;4976886;28;20058;-79
2022/05/27 04:11:32;;;;;;;4.13;2.42;;;;;;;17.78;56.76;100364.66;4987386;28;20649;-79
2022/05/27 04:13:59;;;;;;;4.20;2.40;;;;;;;17.74;56.83;100376.75;4982544;28;20419;-82
2022/05/27 04:16:26;;;;;;;3.53;2.58;;;;;;;17.68;57.09;100372.06;4983028;28;20045;-83
2022/05/27 04:18:53;;;;;;;4.50;2.53;;;;;;;17.63;57.07;100381.59;4997523;28;20559;-82
2022/05/27 04:21:20;;;;;;;2.83;2.30;;;;;;;17.60;57.28;100374.72;5011277;28;20049;-82
2022/05/27 04:23:47;;;;;;;7.55;2.85;;;;;;;17.56;57.64;100373.41;5017836;28;20046;-82
2022/05/27 04:26:14;;;;;;;5.43;2.67;;;;;;;17.52;57.91;100367.50;5004170;28;20381;-83
2022/05/27 04:28:40;;;;;;;4.07;2.58;;;;;;;17.54;57.80;100378.09;4995032;28;20049;-76
2022/05/27 04:31:20;;;;;;;2.63;2.22;;;;;;;17.52;58.15;100383.63;4983762;28;20123;-76
2022/05/27 04:33:48;;;;;;;4.50;2.65;;;;;;;17.54;58.04;100378.09;5010001;28;20053;-77
2022/05/27 04:36:15;;;;;;;4.03;2.13;;;;;;;17.53;58.19;100384.50;4999078;28;20046;-77
2022/05/27 04:38:42;;;;;;;5.07;2.65;;;;;;;17.49;58.45;100389.34;4985931;28;20374;-76
2022/05/27 04:41:09;;;;;;;4.30;2.53;;;;;;;17.46;58.47;100391.53;4982716;28;20053;-77
2022/05/27 04:43:36;;;;;;;6.60;2.67;;;;;;;17.44;58.82;100401.59;5013284;28;20046;-76
2022/05/27 04:46:03;;;;;;;9.80;2.83;;;;;;;17.49;58.66;100405.44;5009689;28;20128;-76
2022/05/27 04:48:30;;;;;;;4.68;2.70;;;;;;;17.54;59.06;100392.34;5003522;28;20048;-77
2022/05/27 04:50:58;;;;;;;6.93;2.78;;;;;;;17.62;59.16;100399.56;5000601;28;20052;-76
2022/05/27 04:53:26;;;;;;;5.43;2.42;;;;;;;17.67;59.09;100401.75;4997052;28;20051;-77
2022/05/27 04:55:53;;;;;;;5.85;2.88;;;;;;;17.73;59.35;100399.25;4976676;28;20494;-77
2022/05/27 04:58:19;;;;;;;8.38;3.35;;;;;;;17.76;59.48;100398.91;4983916;28;20042;-76
2022/05/27 05:00:47;;;;;;;6.28;2.95;;;;;;;17.84;59.35;100397.28;4998823;28;20049;-77
2022/05/27 05:03:21;;;;;;;8.40;3.42;;;;;;;17.89;59.62;100402.97;4986108;28;20159;-76
2022/05/27 05:05:48;;;;;;;5.72;3.78;;;;;;;17.94;58.99;100398.75;5005224;28;20045;-81
2022/05/27 05:08:34;;;;;;;7.53;4.13;;;;;;;17.99;59.41;100401.78;5011271;28;20037;-80
2022/05/27 05:11:01;;;;;;;8.02;4.20;;;;;;;18.09;59.04;100403.44;4965622;28;20070;-80
2022/05/27 05:13:30;;;;;;;7.22;4.15;;;;;;;18.17;58.91;100398.06;4960439;28;20054;-80
2022/05/27 05:15:57;;;;;;;10.00;4.25;;;;;;;18.25;58.47;100414.16;4980838;28;20050;-80
2022/05/27 05:18:24;;;;;;;8.13;4.68;;;;;;;18.24;58.40;100401.72;4977562;28;20076;-80
2022/05/27 05:20:51;;;;;;;6.80;4.30;;;;;;;18.26;58.42;100399.69;4997585;28;20053;-80
2022/05/27 05:23:18;;;;;;;9.30;4.50;;;;;;;18.32;58.40;100400.84;4982882;28;20045;-79
2022/05/27 05:25:45;;;;;;;9.93;4.53;;;;;;;18.34;58.37;100409.59;4981669;28;20048;-79
2022/05/27 05:28:11;;;;;;;11.45;4.35;;;;;;;18.39;58.28;100418.84;4966672;28;20050;-80
2022/05/27 05:30:38;;;;;;;5.38;4.05;;;;;;;18.41;58.56;100419.47;4963566;28;20769;-79
2022/05/27 05:33:05;;;;;;;4.85;4.35;;;;;;;18.44;58.01;100405.72;4986653;28;20050;-80
2022/05/27 05:35:31;;;;;;;9.13;4.35;;;;;;;18.46;57.94;100410.06;4980681;28;20073;-80
2022/05/27 05:37:58;;;;;;;7.55;4.97;;;;;;;18.48;58.03;100416.94;4965790;28;20096;-80
2022/05/27 05:40:25;;;;;;;7.20;4.50;;;;;;;18.51;57.72;100407.69;4992672;28;20053;-81
2022/05/27 05:43:02;;;;;;;9.57;5.10;;;;;;;18.52;57.66;100404.84;4983714;28;20045;-81
2022/05/27 05:45:29;;;;;;;6.57;4.63;;;;;;;18.55;57.57;100414.44;5006192;28;20052;-80
2022/05/27 05:47:56;;;;;;;6.28;4.78;;;;;;;18.52;57.62;100412.91;5030857;28;20697;-80
2022/05/27 05:50:23;;;;;;;7.70;4.75;;;;;;;18.57;57.37;100417.75;4987523;28;20046;-81
2022/05/27 05:52:50;;;;;;;8.80;4.80;;;;;;;18.46;57.60;100410.91;4993909;28;20082;-81
2022/05/27 05:55:18;;;;;;;7.97;4.90;;;;;;;18.48;57.51;100411.56;4996820;28;20129;-81
2022/05/27 05:57:47;;;;;;;9.35;5.05;;;;;;;18.49;57.67;100424.00;5018605;28;20477;-81
2022/05/27 06:00:18;;;;;;;7.75;4.50;;;;;;;18.40;57.67;100420.50;5013011;28;20523;-82
2022/05/27 06:02:45;;;;;;;8.57;4.57;;;;;;;18.43;57.82;100422.00;4990517;28;20060;-77
2022/05/27 06:05:13;;;;;;;7.63;4.93;;;;;;;18.40;57.83;100419.69;5012587;28;20604;-80
2022/05/27 06:07:41;;;;;;;7.68;4.63;;;;;;;18.39;58.04;100415.28;5010024;28;21591;-81
2022/05/27 06:10:10;;;;;;;9.07;4.97;;;;;;;18.42;57.86;100418.50;5025908;28;20708;-81
2022/05/27 06:12:37;;;;;;;7.00;4.95;;;;;;;18.40;57.88;100415.13;5006065;28;20049;-80
2022/05/27 06:15:09;;;;;;;7.65;5.15;;;;;;;18.41;57.52;100422.16;5008608;28;20046;-81
2022/05/27 06:17:36;;;;;;;7.63;5.20;;;;;;;18.42;57.65;100413.13;4993364;28;20049;-80
2022/05/27 06:20:04;;;;;;;8.43;5.80;;;;;;;18.48;57.45;100418.81;5002891;28;20056;-81
2022/05/27 06:22:32;;;;;;;9.52;4.60;;;;;;;18.49;57.59;100415.09;5002647;28;20060;-81
2022/05/27 06:25:00;;;;;;;11.05;5.75;;;;;;;18.54;57.58;100407.34;4982414;28;20102;-83
2022/05/27 06:27:27;;;;;;;8.00;4.78;;;;;;;18.56;57.43;100403.47;5018287;28;20690;-83
2022/05/27 06:35:25;;;;;;;7.28;5.25;;;;;;;18.63;56.87;100401.78;4985079;28;20461;-82
2022/05/27 06:37:51;;;;;;;7.38;5.22;;;;;;;18.61;57.44;100406.47;5007341;28;20052;-83
2022/05/27 06:40:18;;;;;;;6.78;5.45;;;;;;;18.63;57.46;100409.84;5002398;28;20386;-77
2022/05/27 06:42:45;;;;;;;11.65;5.85;;;;;;;18.69;57.20;100410.16;5020392;28;20049;-77
2022/05/27 06:45:13;;;;;;;12.32;6.32;;;;;;;18.65;57.22;100415.88;5000117;28;20120;-83
2022/05/27 06:47:39;;;;;;;10.05;6.10;;;;;;;18.69;57.15;100419.06;4996433;28;20045;-83
2022/05/27 06:50:09;;;;;;;9.82;5.85;;;;;;;18.74;57.08;100410.47;5000117;28;20049;-82
2022/05/27 06:52:37;;;;;;;11.57;7.47;;;;;;;18.80;57.14;100407.09;4972298;28;20470;-83
2022/05/27 06:55:04;;;;;;;10.40;6.13;;;;;;;18.78;57.13;100401.91;5003725;28;20049;-84
2022/05/27 06:57:31;;;;;;;11.57;6.22;;;;;;;18.89;57.07;100389.06;4996666;28;20127;-83
2022/05/27 06:59:58;;;;;;;10.95;6.30;;;;;;;18.92;56.80;100397.63;5005374;28;20081;-82
2022/05/27 07:02:25;;;;;;;9.30;6.20;;;;;;;19.00;56.96;100404.81;5020961;28;20071;-83
2022/05/27 07:04:52;;;;;;;9.63;6.43;;;;;;;18.93;56.59;100398.47;5009791;28;20429;-83
2022/05/27 07:07:27;;;;;;;9.80;6.43;;;;;;;18.70;56.69;100401.06;4998702;28;20057;-83
2022/05/27 07:09:54;;;;;;;10.30;6.90;;;;;;;18.67;57.33;100404.94;5015840;28;20048;-84
2022/05/27 07:12:21;;;;;;;12.27;6.72;;;;;;;18.66;57.28;100412.19;5008361;28;20052;-83
2022/05/27 07:14:48;;;;;;;8.30;6.68;;;;;;;18.64;56.99;100400.75;5006231;28;20726;-83
2022/05/27 07:17:14;;;;;;;11.05;7.53;;;;;;;18.60;56.81;100407.50;5000141;28;20033;-83
2022/05/27 07:19:41;;;;;;;8.73;6.78;;;;;;;18.60;56.96;100412.06;5018223;28;20038;-82
2022/05/27 07:22:10;;;;;;;8.82;7.20;;;;;;;18.57;57.31;100407.84;5010937;28;20755;-83
2022/05/27 07:24:37;;;;;;;9.23;7.25;;;;;;;18.63;57.20;100403.63;4989493;28;20042;-83
2022/05/27 07:27:04;;;;;;;11.95;8.13;;;;;;;18.70;57.15;100401.06;5001656;28;20038;-81
2022/05/27 07:29:31;;;;;;;12.13;7.00;;;;;;;18.76;56.44;100395.84;5004223;28;20128;-79
2022/05/27 07:31:57;;;;;;;11.20;7.57;;;;;;;18.77;56.66;100408.28;4999804;28;20042;-78
2022/05/27 07:34:24;;;;;;;9.38;7.10;;;;;;;18.69;56.96;100404.78;4996774;28;20107;-78
2022/05/27 07:36:51;;;;;;;9.13;6.70;;;;;;;18.68;57.09;100403.94;5002651;28;20046;-78
2022/05/27 07:39:21;;;;;;;10.50;8.15;;;;;;;18.72;56.88;100405.25;4999191;28;20034;-78
2022/05/27 07:41:47;;;;;;;10.02;7.10;;;;;;;18.78;56.31;100409.16;5003014;28;20095;-86
2022/05/27 07:44:15;;;;;;;10.15;6.72;;;;;;;18.68;56.79;100409.31;5016441;28;20537;-86
2022/05/27 07:46:43;;;;;;;10.18;7.10;;;;;;;18.75;56.49;100421.09;5001554;28;20054;-79
2022/05/27 07:49:10;;;;;;;9.95;6.97;;;;;;;18.65;56.96;100407.81;4987630;28;20037;-82
2022/05/27 07:51:57;;;;;;;12.38;7.38;;;;;;;18.66;56.91;100403.28;4987257;28;20128;-84
2022/05/27 07:54:24;;;;;;;8.43;6.65;;;;;;;18.66;56.90;100401.41;5016150;28;20153;-79
2022/05/27 07:56:51;;;;;;;16.60;7.32;;;;;;;18.82;56.63;100403.22;5015057;28;20045;-84
2022/05/27 07:59:18;;;;;;;8.68;7.40;;;;;;;18.82;56.56;100399.69;5007721;28;20076;-83
2022/05/27 08:01:46;;;;;;;9.60;7.10;;;;;;;18.79;56.78;100392.81;4995246;28;20522;-84
2022/05/27 08:04:13;;;;;;;10.20;6.30;;;;;;;18.81;56.27;100390.78;5011557;28;20081;-84
2022/05/27 08:06:41;;;;;;;8.85;5.93;;;;;;;18.75;57.03;100379.84;5014019;28;20049;-84
2022/05/27 08:09:13;;;;;;;7.55;5.85;;;;;;;18.74;56.45;100392.47;4953091;28;20048;-84
2022/05/27 08:11:40;;;;;;;8.80;6.18;;;;;;;18.78;56.44;100385.78;4978962;28;20065;-78
2022/05/27 08:14:07;;;;;;;6.40;5.38;;;;;;;18.83;56.58;100391.47;4972113;28;20065;-79
2022/05/27 08:16:34;;;;;;;12.43;5.80;;;;;;;18.94;56.23;100403.69;5002785;28;20076;-78
2022/05/27 08:19:02;;;;;;;7.60;5.50;;;;;;;18.99;56.08;100403.16;5013723;28;20091;-79
2022/05/27 08:21:28;;;;;;;8.52;5.72;;;;;;;18.92;56.61;100392.25;5028055;28;20049;-79
2022/05/27 08:23:55;;;;;;;9.45;5.05;;;;;;;18.98;56.35;100404.16;5011871;28;20076;-84
2022/05/27 08:26:22;;;;;;;7.90;5.50;;;;;;;19.04;56.21;100398.91;5013863;28;20049;-84
2022/05/27 08:28:49;;;;;;;8.60;5.38;;;;;;;19.11;56.53;100392.81;5003884;28;20066;-85
2022/05/27 08:31:16;;;;;;;9.13;5.10;;;;;;;19.07;55.97;100401.25;5020025;28;20117;-85
2022/05/27 08:39:35;;;;;;;7.50;5.68;;;;;;;19.01;56.69;100385.81;4893084;29;20059;-77
2022/05/27 08:42:26;;;;;;;9.60;6.00;;;;;;;19.02;56.53;100400.09;4896249;29;20059;-76
2022/05/27 08:45:03;;;;;;;8.00;5.40;;;;;;;19.04;55.78;100398.06;4968927;28;20038;-76
2022/05/27 08:47:37;;;;;;;8.00;5.22;;;;;;;19.11;56.33;100396.34;4984217;28;20050;-76
2022/05/27 08:50:04;;;;;;;6.57;5.30;;;;;;;19.08;56.38;100392.16;4995587;28;20038;-76
2022/05/27 08:52:45;;;;;;;8.30;5.70;;;;;;;18.97;56.05;100389.03;5011331;28;20049;-84
2022/05/27 09:01:17;;;;;;;7.50;4.72;;;;;;;19.14;56.25;100392.47;4983808;28;20386;-76
2022/05/27 09:03:52;;;;;;;8.43;4.50;;;;;;;19.16;56.12;100391.28;4995302;28;20053;-76
2022/05/27 09:06:26;;;;;;;7.03;4.72;;;;;;;19.21;56.04;100391.59;5001546;28;20103;-76
2022/05/27 09:09:06;;;;;;;6.40;4.53;;;;;;;19.26;56.02;100389.19;4971195;28;20604;-76
2022/05/27 09:12:04;;;;;;;7.45;4.97;;;;;;;19.23;55.79;100391.38;4979717;28;20739;-76
2022/05/27 09:14:31;;;;;;;7.20;5.72;;;;;;;19.36;55.69;100397.03;4958476;28;20049;-76
2022/05/27 09:17:04;;;;;;;6.95;4.72;;;;;;;19.24;55.70;100393.09;4989421;28;20045;-77
2022/05/27 09:19:51;;;;;;;6.80;4.00;;;;;;;19.36;55.36;100391.66;4976786;28;20095;-77
2022/05/27 09:22:33;;;;;;;6.10;4.10;;;;;;;19.41;55.30;100394.66;5013623;28;20493;-77
2022/05/27 09:25:15;;;;;;;5.82;4.10;;;;;;;19.38;54.73;100389.59;4990309;28;20113;-77
2022/05/27 09:28:10;;;;;;;7.85;4.53;;;;;;;19.42;54.74;100385.53;4990014;28;20535;-81
2022/05/27 09:30:38;;;;;;;5.72;3.97;;;;;;;19.49;55.02;100386.50;4956922;28;20405;-82
2022/05/27 09:33:08;;;;;;;4.82;3.13;;;;;;;19.43;54.89;100391.75;5013069;28;20038;-80
2022/05/27 09:35:42;;;;;;;4.10;3.35;;;;;;;19.51;54.61;100394.38;4978863;28;20714;-79
2022/05/27 09:38:29;;;;;;;4.97;3.42;;;;;;;19.56;54.57;100394.69;4970983;28;20053;-79
2022/05/27 09:41:01;;;;;;;7.63;3.35;;;;;;;19.60;54.96;100396.00;4973568;28;20049;-79
2022/05/27 09:43:42;;;;;;;4.78;3.20;;;;;;;19.71;54.58;100389.38;4975989;28;20099;-79
2022/05/27 09:46:15;;;;;;;6.90;3.20;;;;;;;19.64;55.14;100400.03;4971187;28;20045;-79
2022/05/27 09:48:44;;;;;;;;;;;;;;;19.61;55.26;100394.13;5017782;28;20055;-81
2022/05/27 09:51:12;;;;;;;5.40;3.63;;;;;;;19.73;55.08;100390.88;4982704;28;19976;-80
2022/05/27 09:53:44;;;;;;;7.35;3.72;;;;;;;19.81;54.27;100381.03;4977812;28;20057;-79
2022/05/27 09:56:13;;;;;;;7.37;3.60;;;;;;;19.66;54.88;100387.19;4996041;28;20061;-79
2022/05/27 09:58:42;;;;;;;5.95;3.30;;;;;;;19.75;54.52;100389.88;4991195;28;20103;-79
2022/05/27 10:01:24;;;;;;;4.45;3.63;;;;;;;19.71;54.79;100387.50;5001532;28;20049;-79
2022/05/27 10:04:06;;;;;;;4.80;3.25;;;;;;;19.53;55.25;100386.97;4959043;28;20066;-78
2022/05/27 10:06:34;;;;;;;4.07;3.25;;;;;;;19.64;54.82;100386.56;4978115;28;20045;-77
2022/05/27 10:09:29;;;;;;;4.05;3.42;;;;;;;19.56;54.81;100404.63;5008476;28;20037;-77
2022/05/27 10:11:57;;;;;;;4.07;3.20;;;;;;;19.61;55.15;100394.13;4900783;28;20052;-77
2022/05/27 10:14:33;;;;;;;5.55;3.00;;;;;;;19.59;55.24;100388.09;4971906;28;20057;-78
2022/05/27 10:17:11;;;;;;;3.92;2.67;;;;;;;19.69;54.13;100403.03;4976063;28;20418;-78
2022/05/27 10:19:47;;;;;;;2.90;2.55;;;;;;;19.60;54.97;100405.94;4970840;28;20129;-77
2022/05/27 10:22:23;;;;;;;7.07;2.67;;;;;;;19.56;54.89;100393.84;4968344;28;20058;-78
2022/05/27 10:25:00;;;;;;;3.38;2.92;;;;;;;19.60;54.92;100390.63;4998106;28;20065;-76
2022/05/27 10:27:44;;;;;;;4.95;2.97;;;;;;;19.67;54.38;100390.78;4989479;28;20046;-77
2022/05/27 10:30:24;;;;;;;5.30;2.45;;;;;;;19.71;54.41;100387.50;4969848;28;20045;-75
2022/05/27 10:32:52;;;;;;;3.33;2.42;;;;;;;19.77;54.42;100379.72;4989808;28;20538;-76
2022/05/27 10:35:27;;;;;;;3.22;2.50;;;;;;;19.71;54.35;100382.13;4979266;28;20046;-75
2022/05/27 10:38:30;;;;;;;3.40;2.38;;;;;;;19.76;53.80;100378.06;5006497;28;20046;-75
2022/05/27 10:41:21;;;;;;;4.10;2.20;;;;;;;19.66;54.03;100378.28;4964419;28;20134;-76
2022/05/27 10:43:55;;;;;;;3.00;2.50;;;;;;;19.67;53.79;100380.81;4973809;28;20050;-75
2022/05/27 10:46:23;;;;;;;4.95;2.10;;;;;;;19.61;54.25;100381.50;5016356;28;20482;-75
2022/05/27 10:49:13;;;;;;;2.30;1.95;;;;;;;19.61;53.89;100376.13;4994396;28;20100;-75
2022/05/27 10:51:42;;;;;;;2.00;1.80;;;;;;;19.65;53.86;100380.13;4961736;28;20637;-82
2022/05/27 10:54:39;;;;;;;4.03;2.13;;;;;;;19.64;54.03;100385.69;5004633;28;20045;-82
2022/05/27 11:03:28;;;;;;;14.43;2.70;;;;;;;19.62;54.13;100380.50;4971347;28;20049;-82
2022/05/27 11:06:25;;;;;;;2.30;1.95;;;;;;;19.57;53.91;100376.69;4970251;28;20532;-82
2022/05/27 11:09:00;;;;;;;4.63;2.70;;;;;;;19.62;53.77;100376.97;4936120;28;20046;-75
2022/05/27 11:11:44;;;;;;;2.97;2.22;;;;;;;19.55;53.81;100378.72;4989000;28;20350;-76
2022/05/27 11:17:20;;;;;;;3.42;2.28;;;;;;;19.48;53.86;100373.19;4979574;28;20041;-82
2022/05/27 11:19:49;;;;;;;2.30;2.17;;;;;;;19.57;53.63;100369.44;5012078;28;20123;-82
2022/05/27 11:22:26;;;;;;;2.35;2.15;;;;;;;19.45;54.36;100374.41;5006100;28;20059;-82
2022/05/27 11:25:26;;;;;;;2.90;1.80;;;;;;;19.44;54.54;100366.53;4993403;28;20045;-80
2022/05/27 11:28:23;;;;;;;2.45;2.13;;;;;;;19.42;54.63;100363.16;4944447;28;20038;-81
2022/05/27 11:31:25;;;;;;;3.10;2.17;;;;;;;19.44;54.53;100363.81;4991034;28;20064;-82
2022/05/27 11:34:06;;;;;;;3.33;2.03;;;;;;;19.54;54.02;100356.34;4921160;28;20046;-81
2022/05/27 11:36:50;;;;;;;2.55;1.98;;;;;;;19.48;54.36;100355.19;4975992;28;21669;-82
2022/05/27 11:39:31;;;;;;;3.63;2.00;;;;;;;19.55;54.66;100354.47;4982450;28;20053;-81
2022/05/27 11:42:07;;;;;;;4.20;2.20;;;;;;;19.62;54.34;100353.56;5011260;28;20045;-81
2022/05/27 11:44:41;;;;;;;2.70;2.20;;;;;;;19.59;54.26;100350.38;4972452;28;20065;-81
2022/05/27 11:47:28;;;;;;;3.60;2.05;;;;;;;19.51;54.61;100353.97;4988688;28;20591;-81
2022/05/27 11:50:12;;;;;;;3.00;1.90;;;;;;;19.61;54.39;100349.19;4965906;28;20052;-81
2022/05/27 11:52:48;;;;;;;3.60;2.08;;;;;;;19.65;54.30;100363.13;4965507;28;20046;-82
2022/05/27 11:55:39;;;;;;;2.28;2.00;;;;;;;19.58;54.28;100352.25;4968572;28;20599;-81
2022/05/27 11:58:26;;;;;;;3.08;2.20;;;;;;;19.50;54.34;100355.00;4917905;28;21011;-81
2022/05/27 12:01:07;;;;;;;2.58;1.60;;;;;;;19.42;54.83;100360.47;4927472;28;20315;-81
2022/05/27 12:03:56;;;;;;;4.07;2.20;;;;;;;19.48;54.84;100357.03;4979582;28;20561;-82
2022/05/27 12:06:30;;;;;;;3.15;2.28;;;;;;;19.59;54.38;100367.41;4965476;28;20042;-81
2022/05/27 12:09:14;;;;;;;2.45;1.95;;;;;;;19.65;54.95;100361.28;4943757;28;20050;-77
2022/05/27 12:11:48;;;;;;;2.65;2.20;;;;;;;19.73;54.98;100368.47;4955818;28;20039;-81
2022/05/27 12:14:47;;;;;;;4.15;2.28;;;;;;;19.70;55.70;100367.00;4983760;28;20803;-81
2022/05/27 12:17:20;;;;;;;4.20;2.40;;;;;;;19.75;55.73;100371.84;4943051;28;20604;-78
2022/05/27 12:19:57;;;;;;;2.97;1.95;;;;;;;19.77;55.82;100371.63;4971487;28;20145;-77
2022/05/27 12:22:27;;;;;;;3.13;2.38;;;;;;;19.74;55.59;100367.44;4973699;28;20062;-78
2022/05/27 12:25:23;;;;;;;3.30;2.38;;;;;;;19.65;56.92;100369.34;5006654;28;20050;-81